Time;durP1;ratioP1;P1;durP2;ratioP2;P2;SDS_P1;SDS_P2;PMS_P1;PMS_P2;Temp;Humidity;BMP_temperature;BMP_pressure;BME280_temperature;BME280_humidity;BME280_pressure;Samples;Min_cycle;Max_cycle;Signal;HPM_P1;HPM_P2
2024/01/13 00:01:03;;;;;;;9.17;8.10;;;;;;;;;;5072280;28;20437;-54
2024/01/13 00:03:29;;;;;;;8.83;7.63;;;;;;;;;;5072158;28;20549;-54
2024/01/13 00:05:55;;;;;;;8.40;7.50;;;;;;;;;;5072407;28;20955;-54
2024/01/13 00:08:21;;;;;;;8.70;7.80;;;;;;;;;;5072279;28;20199;-54
2024/01/13 00:10:47;;;;;;;9.63;7.97;;;;;;;;;;5071794;28;20231;-54
2024/01/13 00:13:13;;;;;;;9.13;8.03;;;;;;;;;;5072287;28;20450;-54
2024/01/13 00:15:39;;;;;;;9.20;8.20;;;;;;;;;;5071711;28;20242;-54
2024/01/13 00:18:07;;;;;;;9.73;8.47;;;;;;;;;;5072003;28;20449;-54
2024/01/13 00:20:33;;;;;;;9.63;8.67;;;;;;;;;;5072024;28;20481;-53
2024/01/13 00:22:59;;;;;;;9.93;8.10;;;;;;;;;;5072063;28;20480;-53
2024/01/13 00:25:25;;;;;;;11.17;8.47;;;;;;;;;;5071982;28;20437;-53
2024/01/13 00:27:51;;;;;;;12.20;9.43;;;;;;;;;;5071770;28;20433;-54
2024/01/13 00:30:17;;;;;;;11.63;9.43;;;;;;;;;;5071937;28;20199;-54
2024/01/13 00:32:43;;;;;;;11.20;9.77;;;;;;;;;;5071795;28;20195;-54
2024/01/13 00:35:12;;;;;;;11.07;9.80;;;;;;;;;;5071729;28;20480;-54
2024/01/13 00:37:38;;;;;;;11.17;9.47;;;;;;;;;;5071712;28;20211;-54
2024/01/13 00:40:04;;;;;;;12.43;8.93;;;;;;;;;;5071642;28;20442;-54
2024/01/13 00:42:30;;;;;;;11.50;9.80;;;;;;;;;;5071660;28;20219;-53
2024/01/13 00:44:56;;;;;;;12.60;9.43;;;;;;;;;;5071880;28;20438;-53
2024/01/13 00:47:22;;;;;;;11.03;9.83;;;;;;;;;;5071642;28;20203;-52
2024/01/13 00:49:48;;;;;;;13.20;10.40;;;;;;;;;;5071635;28;20695;-53
2024/01/13 00:52:15;;;;;;;12.57;10.50;;;;;;;;;;5071597;28;20199;-53
2024/01/13 00:54:43;;;;;;;12.83;10.57;;;;;;;;;;5071623;28;20294;-53
2024/01/13 00:57:09;;;;;;;11.77;10.10;;;;;;;;;;5071628;28;20446;-52
2024/01/13 00:59:35;;;;;;;11.03;9.83;;;;;;;;;;5071361;28;20430;-55
2024/01/13 01:02:01;;;;;;;11.57;10.17;;;;;;;;;;5071597;28;20258;-54
2024/01/13 01:04:27;;;;;;;11.53;9.53;;;;;;;;;;5071412;28;20720;-54
2024/01/13 01:06:53;;;;;;;10.13;9.13;;;;;;;;;;5071646;28;20412;-55
2024/01/13 01:09:20;;;;;;;10.37;8.93;;;;;;;;;;5071727;28;20196;-55
2024/01/13 01:11:46;;;;;;;10.63;9.07;;;;;;;;;;5071436;28;20254;-55
2024/01/13 01:14:12;;;;;;;9.67;8.00;;;;;;;;;;5071664;28;20442;-54
2024/01/13 01:16:38;;;;;;;9.17;7.37;;;;;;;;;;5071066;28;20247;-55
2024/01/13 01:19:04;;;;;;;9.10;8.20;;;;;;;;;;5071507;28;20286;-54
2024/01/13 01:21:30;;;;;;;9.53;7.40;;;;;;;;;;5071340;28;21010;-54
2024/01/13 01:23:56;;;;;;;7.53;6.73;;;;;;;;;;5075237;28;20199;-54
2024/01/13 01:26:23;;;;;;;8.17;7.37;;;;;;;;;;5075525;28;20196;-54
2024/01/13 01:28:49;;;;;;;10.10;7.80;;;;;;;;;;5075079;28;20208;-54
2024/01/13 01:31:15;;;;;;;8.93;7.60;;;;;;;;;;5075327;28;20442;-54
2024/01/13 01:33:41;;;;;;;9.53;6.83;;;;;;;;;;5075278;28;20202;-58
2024/01/13 01:36:08;;;;;;;8.50;7.70;;;;;;;;;;5075306;28;20512;-54
2024/01/13 01:38:34;;;;;;;7.93;7.13;;;;;;;;;;5075105;28;20476;-55
2024/01/13 01:41:00;;;;;;;8.77;7.30;;;;;;;;;;5075047;28;20533;-54
2024/01/13 01:43:27;;;;;;;9.60;8.60;;;;;;;;;;5074988;28;20557;-55
2024/01/13 01:45:54;;;;;;;8.60;7.70;;;;;;;;;;5074929;28;20222;-55
2024/01/13 01:48:23;;;;;;;8.70;7.80;;;;;;;;;;5074932;28;20982;-54
2024/01/13 01:50:49;;;;;;;8.60;7.10;;;;;;;;;;5074751;28;20454;-54
2024/01/13 01:53:15;;;;;;;7.97;6.90;;;;;;;;;;5074669;28;20455;-54
2024/01/13 01:55:41;;;;;;;10.00;7.93;;;;;;;;;;5074702;28;20249;-55
2024/01/13 01:58:07;;;;;;;8.07;7.13;;;;;;;;;;5074824;28;20204;-55
2024/01/13 02:00:34;;;;;;;8.60;7.70;;;;;;;;;;5072705;28;20661;-53
2024/01/13 02:03:00;;;;;;;7.60;6.87;;;;;;;;;;5073186;28;20558;-53
2024/01/13 02:05:26;;;;;;;8.67;7.77;;;;;;;;;;5074759;28;20437;-54
2024/01/13 02:07:53;;;;;;;8.40;7.60;;;;;;;;;;5074650;28;20195;-54
2024/01/13 02:10:19;;;;;;;9.00;7.97;;;;;;;;;;5074653;28;20192;-54
2024/01/13 02:12:45;;;;;;;9.10;8.20;;;;;;;;;;5074427;28;20554;-53
2024/01/13 02:15:11;;;;;;;8.23;7.30;;;;;;;;;;5074571;28;20650;-52
2024/01/13 02:17:39;;;;;;;8.43;7.53;;;;;;;;;;5074407;28;20457;-53
2024/01/13 02:20:07;;;;;;;10.00;7.73;;;;;;;;;;5074517;28;20434;-51
2024/01/13 02:22:34;;;;;;;7.23;6.53;;;;;;;;;;5074413;28;20522;-51
2024/01/13 02:25:03;;;;;;;7.77;6.50;;;;;;;;;;5074543;28;20792;-51
2024/01/13 02:27:29;;;;;;;6.13;5.53;;;;;;;;;;5074555;28;20541;-52
2024/01/13 02:29:55;;;;;;;6.63;6.03;;;;;;;;;;5074521;28;20504;-52
2024/01/13 02:32:21;;;;;;;6.77;5.87;;;;;;;;;;5074280;28;20562;-52
2024/01/13 02:34:47;;;;;;;5.47;4.97;;;;;;;;;;5074014;28;20762;-52
2024/01/13 02:37:13;;;;;;;5.87;5.27;;;;;;;;;;5074393;28;20537;-51
2024/01/13 02:39:40;;;;;;;5.90;5.30;;;;;;;;;;5074135;28;20200;-52
2024/01/13 02:42:06;;;;;;;5.53;4.97;;;;;;;;;;5074070;28;20228;-52
2024/01/13 02:44:32;;;;;;;6.10;5.50;;;;;;;;;;5074003;28;20935;-52
2024/01/13 02:46:58;;;;;;;5.50;5.00;;;;;;;;;;5073953;28;20442;-52
2024/01/13 02:49:24;;;;;;;5.03;4.53;;;;;;;;;;5073870;28;20944;-52
2024/01/13 02:51:50;;;;;;;5.00;4.60;;;;;;;;;;5073865;28;20445;-52
2024/01/13 02:54:16;;;;;;;5.50;4.80;;;;;;;;;;5073978;28;20274;-52
2024/01/13 02:56:44;;;;;;;5.07;4.57;;;;;;;;;;5073914;28;20962;-52
2024/01/13 02:59:10;;;;;;;6.17;5.53;;;;;;;;;;5073835;28;20660;-52
2024/01/13 03:01:36;;;;;;;6.40;5.80;;;;;;;;;;5073517;28;20489;-52
2024/01/13 03:04:02;;;;;;;7.73;6.60;;;;;;;;;;5073681;28;20437;-52
2024/01/13 03:06:28;;;;;;;6.70;6.00;;;;;;;;;;5073728;28;21008;-52
2024/01/13 03:08:54;;;;;;;6.03;5.43;;;;;;;;;;5073507;28;20434;-52
2024/01/13 03:11:20;;;;;;;6.20;5.60;;;;;;;;;;5073554;28;20485;-52
2024/01/13 03:13:48;;;;;;;6.80;6.10;;;;;;;;;;5073470;28;20456;-52
2024/01/13 03:16:14;;;;;;;6.67;5.77;;;;;;;;;;5069988;28;20446;-52
2024/01/13 03:18:40;;;;;;;5.73;5.13;;;;;;;;;;5069792;28;20449;-52
2024/01/13 03:21:06;;;;;;;6.40;5.80;;;;;;;;;;5068338;28;20444;-51
2024/01/13 03:23:33;;;;;;;6.43;5.43;;;;;;;;;;5073185;28;21046;-52
2024/01/13 03:25:59;;;;;;;5.73;5.13;;;;;;;;;;5065980;28;20650;-52
2024/01/13 03:28:24;;;;;;;6.40;5.77;;;;;;;;;;5066404;28;20445;-51
2024/01/13 03:30:52;;;;;;;5.90;5.33;;;;;;;;;;5066106;28;20487;-52
2024/01/13 03:33:18;;;;;;;6.03;5.43;;;;;;;;;;5066248;28;20738;-52
2024/01/13 03:35:44;;;;;;;6.10;5.47;;;;;;;;;;5062799;28;20509;-51
2024/01/13 03:38:10;;;;;;;5.83;5.23;;;;;;;;;;5067908;28;20559;-52
2024/01/13 03:40:36;;;;;;;5.80;4.87;;;;;;;;;;5062580;28;20283;-51
2024/01/13 03:43:02;;;;;;;6.00;5.03;;;;;;;;;;5064244;28;20228;-52
2024/01/13 03:45:28;;;;;;;5.87;4.90;;;;;;;;;;5063754;28;20461;-52
2024/01/13 03:47:55;;;;;;;5.50;5.00;;;;;;;;;;5065786;28;20682;-52
2024/01/13 03:50:21;;;;;;;6.17;5.23;;;;;;;;;;5062478;28;20218;-52
2024/01/13 03:52:48;;;;;;;5.67;5.13;;;;;;;;;;5062357;28;20438;-52
2024/01/13 03:55:14;;;;;;;6.73;5.10;;;;;;;;;;5062461;28;20438;-52
2024/01/13 03:57:40;;;;;;;6.47;5.17;;;;;;;;;;5065027;28;20522;-52
2024/01/13 04:00:08;;;;;;;5.80;5.20;;;;;;;;;;5064074;28;20840;-52
2024/01/13 04:02:34;;;;;;;5.77;5.17;;;;;;;;;;5062212;28;20233;-52
2024/01/13 04:05:01;;;;;;;6.50;5.07;;;;;;;;;;5060492;28;20471;-52
2024/01/13 04:07:27;;;;;;;4.87;4.37;;;;;;;;;;5062159;28;20453;-53
2024/01/13 04:09:53;;;;;;;4.50;4.00;;;;;;;;;;5062069;28;20815;-53
2024/01/13 04:12:19;;;;;;;5.20;4.20;;;;;;;;;;5061999;28;20258;-53
2024/01/13 04:14:45;;;;;;;4.77;3.90;;;;;;;;;;5062155;28;20274;-53
2024/01/13 04:17:11;;;;;;;4.93;4.43;;;;;;;;;;5062120;28;20219;-53
2024/01/13 04:19:37;;;;;;;4.57;3.90;;;;;;;;;;5060209;28;20517;-53
2024/01/13 04:22:05;;;;;;;5.03;4.30;;;;;;;;;;5060188;28;20747;-53
2024/01/13 04:24:31;;;;;;;4.33;3.77;;;;;;;;;;5058643;28;20282;-52
2024/01/13 04:26:57;;;;;;;4.57;3.97;;;;;;;;;;5060000;28;20974;-53
2024/01/13 04:29:23;;;;;;;5.30;4.23;;;;;;;;;;5063535;28;20412;-53
2024/01/13 04:31:49;;;;;;;4.23;3.67;;;;;;;;;;5059984;28;20214;-53
2024/01/13 04:34:15;;;;;;;5.13;4.30;;;;;;;;;;5062380;28;20199;-53
2024/01/13 04:36:41;;;;;;;3.60;3.30;;;;;;;;;;5062131;28;20734;-52
2024/01/13 04:39:08;;;;;;;4.10;3.67;;;;;;;;;;5071904;28;20561;-53
2024/01/13 04:41:34;;;;;;;4.80;3.90;;;;;;;;;;5071855;28;20237;-53
2024/01/13 04:44:00;;;;;;;4.17;3.77;;;;;;;;;;5072108;28;20453;-53
2024/01/13 04:46:26;;;;;;;3.70;3.40;;;;;;;;;;5071940;28;20522;-53
2024/01/13 04:48:52;;;;;;;4.50;4.10;;;;;;;;;;5071774;28;20207;-52
2024/01/13 04:51:18;;;;;;;4.37;3.97;;;;;;;;;;5071891;28;20209;-53
2024/01/13 04:53:44;;;;;;;4.57;3.73;;;;;;;;;;5071929;28;20225;-53
2024/01/13 04:56:11;;;;;;;4.67;4.00;;;;;;;;;;5071440;28;20231;-53
2024/01/13 04:58:37;;;;;;;3.77;3.47;;;;;;;;;;5071423;28;20226;-53
2024/01/13 05:01:03;;;;;;;4.73;3.87;;;;;;;;;;5071661;28;20561;-53
2024/01/13 05:03:29;;;;;;;3.93;3.53;;;;;;;;;;5071808;28;20627;-53
2024/01/13 05:05:55;;;;;;;3.57;3.27;;;;;;;;;;5071616;28;20438;-53
2024/01/13 05:08:21;;;;;;;4.20;3.73;;;;;;;;;;5071907;28;20203;-53
2024/01/13 05:10:47;;;;;;;3.87;3.47;;;;;;;;;;5071375;28;20199;-53
2024/01/13 05:13:15;;;;;;;5.17;4.03;;;;;;;;;;5071768;28;20222;-53
2024/01/13 05:15:42;;;;;;;5.20;4.03;;;;;;;;;;5071459;28;20879;-53
2024/01/13 05:18:08;;;;;;;4.47;3.77;;;;;;;;;;5071458;28;20533;-53
2024/01/13 05:20:34;;;;;;;4.70;3.97;;;;;;;;;;5071577;28;20545;-53
2024/01/13 05:23:00;;;;;;;4.23;3.83;;;;;;;;;;5071547;28;20231;-53
2024/01/13 05:25:26;;;;;;;4.90;4.40;;;;;;;;;;5071640;28;20533;-53
2024/01/13 05:27:52;;;;;;;4.43;4.03;;;;;;;;;;5071451;28;20525;-53
2024/01/13 05:30:19;;;;;;;5.03;4.53;;;;;;;;;;5071427;28;20336;-53
2024/01/13 05:32:45;;;;;;;5.40;4.43;;;;;;;;;;5071421;28;20204;-53
2024/01/13 05:35:11;;;;;;;5.07;4.57;;;;;;;;;;5071456;28;20453;-53
2024/01/13 05:37:37;;;;;;;5.53;5.03;;;;;;;;;;5071374;28;20215;-52
2024/01/13 05:40:05;;;;;;;4.87;4.40;;;;;;;;;;5071240;28;20672;-53
2024/01/13 05:42:31;;;;;;;5.13;4.63;;;;;;;;;;5071314;28;20630;-52
2024/01/13 05:44:57;;;;;;;4.40;4.00;;;;;;;;;;5071275;28;21009;-52
2024/01/13 05:47:25;;;;;;;5.70;4.27;;;;;;;;;;5071378;28;20195;-53
2024/01/13 05:49:51;;;;;;;4.67;4.20;;;;;;;;;;5071262;28;20203;-52
2024/01/13 05:52:17;;;;;;;4.80;4.27;;;;;;;;;;5071460;28;20432;-52
2024/01/13 05:54:43;;;;;;;4.40;4.00;;;;;;;;;;5071353;28;20696;-53
2024/01/13 05:57:09;;;;;;;4.53;4.03;;;;;;;;;;5071272;28;20313;-52
2024/01/13 05:59:35;;;;;;;4.10;3.70;;;;;;;;;;5071171;28;20245;-52
2024/01/13 06:02:01;;;;;;;3.93;3.53;;;;;;;;;;5071226;28;20485;-52
2024/01/13 06:04:29;;;;;;;3.87;3.57;;;;;;;;;;5071250;28;20208;-52
2024/01/13 06:06:54;;;;;;;4.57;4.17;;;;;;;;;;5071075;28;20659;-52
2024/01/13 06:09:20;;;;;;;4.20;3.50;;;;;;;;;;5073639;28;20929;-52
2024/01/13 06:11:46;;;;;;;4.27;3.70;;;;;;;;;;5074498;28;20277;-52
2024/01/13 06:14:12;;;;;;;3.83;3.53;;;;;;;;;;5074745;28;20204;-52
2024/01/13 06:16:38;;;;;;;4.03;3.57;;;;;;;;;;5074432;28;20223;-52
2024/01/13 06:19:05;;;;;;;3.77;3.47;;;;;;;;;;5074448;28;20203;-53
2024/01/13 06:21:32;;;;;;;4.23;3.83;;;;;;;;;;5074536;28;20954;-53
2024/01/13 06:23:59;;;;;;;4.33;3.57;;;;;;;;;;5074703;28;20517;-52
2024/01/13 06:26:25;;;;;;;4.10;3.70;;;;;;;;;;5074438;28;20532;-52
2024/01/13 06:28:51;;;;;;;3.90;3.60;;;;;;;;;;5074248;28;20434;-52
2024/01/13 06:31:17;;;;;;;4.47;3.57;;;;;;;;;;5074481;28;20493;-52
2024/01/13 06:33:43;;;;;;;3.50;3.20;;;;;;;;;;5074385;28;20650;-52
2024/01/13 06:36:09;;;;;;;3.13;2.90;;;;;;;;;;5074228;28;20227;-52
2024/01/13 06:38:36;;;;;;;3.87;3.40;;;;;;;;;;5074202;28;20198;-52
2024/01/13 06:41:03;;;;;;;3.97;3.57;;;;;;;;;;5074105;28;20203;-52
2024/01/13 06:43:28;;;;;;;3.73;3.13;;;;;;;;;;5074184;28;20481;-52
2024/01/13 06:45:54;;;;;;;3.60;3.30;;;;;;;;;;5073930;28;20483;-52
2024/01/13 06:48:20;;;;;;;3.40;3.10;;;;;;;;;;5074032;28;20693;-52
2024/01/13 06:50:46;;;;;;;3.77;3.40;;;;;;;;;;5074020;28;20196;-52
2024/01/13 06:53:12;;;;;;;3.93;3.53;;;;;;;;;;5074211;28;20203;-52
2024/01/13 06:55:40;;;;;;;4.00;3.60;;;;;;;;;;5073954;28;20962;-52
2024/01/13 06:58:06;;;;;;;3.70;3.40;;;;;;;;;;5073690;28;20212;-51
2024/01/13 07:00:32;;;;;;;3.93;3.37;;;;;;;;;;5073844;28;20437;-51
2024/01/13 07:02:58;;;;;;;4.17;3.77;;;;;;;;;;5073984;28;20219;-52
2024/01/13 07:05:24;;;;;;;4.53;3.97;;;;;;;;;;5073679;28;20993;-52
2024/01/13 07:07:50;;;;;;;3.40;3.10;;;;;;;;;;5073545;28;20215;-52
2024/01/13 07:10:16;;;;;;;3.53;3.23;;;;;;;;;;5073796;28;20492;-51
2024/01/13 07:12:43;;;;;;;4.53;3.90;;;;;;;;;;5073508;28;20219;-52
2024/01/13 07:15:09;;;;;;;3.77;3.40;;;;;;;;;;5073343;28;20780;-52
2024/01/13 07:17:35;;;;;;;3.13;2.83;;;;;;;;;;5073510;28;20467;-52
2024/01/13 07:20:01;;;;;;;3.93;3.53;;;;;;;;;;5072381;28;20426;-52
2024/01/13 07:22:29;;;;;;;3.70;3.40;;;;;;;;;;5073413;28;20241;-52
2024/01/13 07:24:55;;;;;;;4.67;3.67;;;;;;;;;;5073182;28;20245;-51
2024/01/13 07:27:21;;;;;;;3.77;3.43;;;;;;;;;;5073011;28;20793;-52
2024/01/13 07:29:49;;;;;;;6.97;3.83;;;;;;;;;;5073023;28;20442;-52
2024/01/13 07:32:15;;;;;;;5.00;3.83;;;;;;;;;;5072984;28;20209;-51
2024/01/13 07:34:41;;;;;;;4.57;4.10;;;;;;;;;;5072647;28;20434;-52
2024/01/13 07:37:07;;;;;;;5.30;4.80;;;;;;;;;;5072687;28;20226;-52
2024/01/13 07:39:33;;;;;;;4.67;4.27;;;;;;;;;;5072666;28;20462;-52
2024/01/13 07:41:59;;;;;;;5.07;4.57;;;;;;;;;;5072626;28;20474;-52
2024/01/13 07:44:25;;;;;;;5.30;4.80;;;;;;;;;;5072499;28;20487;-52
2024/01/13 07:46:53;;;;;;;5.23;4.73;;;;;;;;;;5072559;28;20609;-52
2024/01/13 07:49:19;;;;;;;5.00;4.50;;;;;;;;;;5072671;28;20203;-53
2024/01/13 07:51:49;;;;;;;4.67;4.17;;;;;;;;;;5072787;28;20434;-53
2024/01/13 07:54:15;;;;;;;5.17;4.00;;;;;;;;;;5072782;28;20426;-52
2024/01/13 07:56:41;;;;;;;5.27;4.23;;;;;;;;;;5072458;28;20430;-52
2024/01/13 07:59:07;;;;;;;4.30;3.90;;;;;;;;;;5072229;28;20433;-54
2024/01/13 08:01:33;;;;;;;5.60;4.40;;;;;;;;;;5072511;28;20445;-52
2024/01/13 08:04:01;;;;;;;4.73;4.33;;;;;;;;;;5072628;28;20239;-53
2024/01/13 08:06:27;;;;;;;4.23;3.83;;;;;;;;;;5072137;28;20196;-54
2024/01/13 08:08:53;;;;;;;4.53;4.10;;;;;;;;;;5072073;28;20430;-53
2024/01/13 08:11:19;;;;;;;4.40;4.00;;;;;;;;;;5072228;28;20875;-53
2024/01/13 08:13:45;;;;;;;4.33;3.93;;;;;;;;;;5072260;28;20454;-52
2024/01/13 08:16:11;;;;;;;4.47;4.07;;;;;;;;;;5072102;28;20873;-52
2024/01/13 08:18:37;;;;;;;4.30;3.90;;;;;;;;;;5071931;28;20269;-52
2024/01/13 08:21:04;;;;;;;4.30;3.90;;;;;;;;;;5072046;28;20198;-52
2024/01/13 08:23:30;;;;;;;4.60;4.10;;;;;;;;;;5072083;28;20485;-53
2024/01/13 08:25:57;;;;;;;4.17;3.73;;;;;;;;;;5071978;28;20483;-52
2024/01/13 08:28:23;;;;;;;4.97;4.47;;;;;;;;;;5072137;28;20580;-53
2024/01/13 08:30:49;;;;;;;4.20;3.80;;;;;;;;;;5071475;28;20530;-53
2024/01/13 08:33:15;;;;;;;5.03;4.43;;;;;;;;;;5071866;28;20198;-54
2024/01/13 08:35:41;;;;;;;3.73;3.40;;;;;;;;;;5071853;28;20429;-53
2024/01/13 08:38:08;;;;;;;3.97;3.67;;;;;;;;;;5071626;28;20555;-52
2024/01/13 08:40:34;;;;;;;3.90;3.60;;;;;;;;;;5071907;28;20434;-56
2024/01/13 08:43:02;;;;;;;3.93;3.43;;;;;;;;;;5071702;28;20567;-53
2024/01/13 08:45:33;;;;;;;4.50;3.57;;;;;;;;;;5071993;28;20282;-52
2024/01/13 08:47:59;;;;;;;3.43;3.13;;;;;;;;;;5071785;28;20931;-53
2024/01/13 08:50:25;;;;;;;3.87;3.20;;;;;;;;;;5071674;28;20472;-53
2024/01/13 08:52:54;;;;;;;4.17;3.40;;;;;;;;;;5071608;28;20524;-53
2024/01/13 08:55:21;;;;;;;3.13;2.90;;;;;;;;;;5071496;28;20499;-53
2024/01/13 08:57:47;;;;;;;3.40;3.10;;;;;;;;;;5071500;28;20450;-53
2024/01/13 09:00:14;;;;;;;3.77;3.47;;;;;;;;;;5071892;28;20440;-52
2024/01/13 09:02:40;;;;;;;3.60;3.30;;;;;;;;;;5071460;28;20338;-52
2024/01/13 09:05:07;;;;;;;4.50;4.07;;;;;;;;;;5071397;28;20438;-52
2024/01/13 09:07:33;;;;;;;5.03;3.43;;;;;;;;;;5071608;28;20526;-52
2024/01/13 09:09:59;;;;;;;4.23;3.80;;;;;;;;;;5071512;28;20481;-52
2024/01/13 09:12:26;;;;;;;4.60;4.00;;;;;;;;;;5071141;28;20509;-52
2024/01/13 09:14:52;;;;;;;4.60;4.00;;;;;;;;;;5071241;28;20196;-52
2024/01/13 09:17:18;;;;;;;5.90;4.03;;;;;;;;;;5071160;28;20548;-52
2024/01/13 09:19:44;;;;;;;4.20;3.80;;;;;;;;;;5071522;28;20249;-51
2024/01/13 09:22:10;;;;;;;4.63;4.23;;;;;;;;;;5071180;28;20635;-50
2024/01/13 09:24:36;;;;;;;8.03;5.40;;;;;;;;;;5071257;28;20203;-50
2024/01/13 09:27:02;;;;;;;5.30;4.67;;;;;;;;;;5071317;28;20188;-52
2024/01/13 09:29:29;;;;;;;4.80;4.30;;;;;;;;;;5070012;28;20219;-51
2024/01/13 09:31:55;;;;;;;5.27;4.50;;;;;;;;;;5071241;28;20450;-51
2024/01/13 09:34:21;;;;;;;5.47;4.33;;;;;;;;;;5071616;28;20428;-54
2024/01/13 09:36:48;;;;;;;5.60;4.97;;;;;;;;;;5071325;28;20438;-53
2024/01/13 09:39:14;;;;;;;5.80;5.00;;;;;;;;;;5071238;28;20207;-53
2024/01/13 09:41:40;;;;;;;6.47;5.03;;;;;;;;;;5071229;28;20482;-53
2024/01/13 09:44:09;;;;;;;5.70;5.00;;;;;;;;;;5073190;28;20480;-52
2024/01/13 09:46:36;;;;;;;5.37;4.73;;;;;;;;;;5074875;28;20503;-53
2024/01/13 09:49:06;;;;;;;5.10;4.60;;;;;;;;;;5074945;28;20947;-53
2024/01/13 09:51:33;;;;;;;5.70;4.57;;;;;;;;;;5074873;28;21021;-53
2024/01/13 09:54:04;;;;;;;5.67;5.17;;;;;;;;;;5075042;28;20461;-53
2024/01/13 09:56:33;;;;;;;5.43;4.90;;;;;;;;;;5074960;28;20533;-53
2024/01/13 09:58:59;;;;;;;5.40;4.90;;;;;;;;;;5074904;28;20481;-53
2024/01/13 10:01:25;;;;;;;5.33;4.83;;;;;;;;;;5074595;28;20935;-52
2024/01/13 10:03:52;;;;;;;5.47;4.83;;;;;;;;;;5074600;28;20497;-53
2024/01/13 10:06:19;;;;;;;5.67;4.73;;;;;;;;;;5074461;28;20936;-53
2024/01/13 10:08:46;;;;;;;5.00;4.50;;;;;;;;;;5066196;28;20449;-52
2024/01/13 10:11:12;;;;;;;5.53;4.93;;;;;;;;;;5060619;28;20473;-52
2024/01/13 10:13:38;;;;;;;5.20;4.70;;;;;;;;;;5060637;28;20921;-52
2024/01/13 10:16:04;;;;;;;5.40;4.73;;;;;;;;;;5060870;28;20525;-53
2024/01/13 10:18:31;;;;;;;4.87;4.37;;;;;;;;;;5060797;28;20242;-53
2024/01/13 10:20:58;;;;;;;6.20;5.00;;;;;;;;;;5060582;28;20917;-52
2024/01/13 10:23:25;;;;;;;5.90;5.17;;;;;;;;;;5060605;28;20559;-52
2024/01/13 10:25:51;;;;;;;6.50;5.57;;;;;;;;;;5060693;28;20454;-53
2024/01/13 10:28:17;;;;;;;5.30;4.60;;;;;;;;;;5062590;28;20434;-52
2024/01/13 10:30:43;;;;;;;5.90;5.17;;;;;;;;;;5062501;28;20507;-52
2024/01/13 10:33:10;;;;;;;6.53;5.93;;;;;;;;;;5061971;28;20282;-52
2024/01/13 10:35:37;;;;;;;6.63;5.93;;;;;;;;;;5062262;28;20261;-52
2024/01/13 10:38:04;;;;;;;6.17;5.57;;;;;;;;;;5060524;28;20511;-53
2024/01/13 10:40:30;;;;;;;6.30;5.70;;;;;;;;;;5062157;28;20437;-53
2024/01/13 10:42:57;;;;;;;6.20;5.60;;;;;;;;;;5061916;28;20485;-52
2024/01/13 10:45:24;;;;;;;8.10;6.17;;;;;;;;;;5060194;28;20618;-52
2024/01/13 10:47:53;;;;;;;7.07;6.23;;;;;;;;;;5061893;28;20442;-52
2024/01/13 10:50:20;;;;;;;7.17;6.40;;;;;;;;;;5060123;28;20434;-52
2024/01/13 10:52:53;;;;;;;6.80;6.20;;;;;;;;;;5060221;28;20422;-52
2024/01/13 10:55:20;;;;;;;6.10;5.50;;;;;;;;;;5061685;28;20859;-52
2024/01/13 10:57:47;;;;;;;7.27;6.13;;;;;;;;;;5060100;28;20445;-51
2024/01/13 11:00:13;;;;;;;6.70;6.00;;;;;;;;;;5061741;28;20481;-51
2024/01/13 11:02:40;;;;;;;7.00;6.30;;;;;;;;;;5061544;28;20503;-53
2024/01/13 11:05:06;;;;;;;6.63;5.90;;;;;;;;;;5061611;28;20441;-55
2024/01/13 11:07:32;;;;;;;7.33;6.30;;;;;;;;;;5061461;28;20437;-52
2024/01/13 11:10:00;;;;;;;6.73;5.67;;;;;;;;;;5059822;28;20472;-52
2024/01/13 11:12:29;;;;;;;7.03;6.33;;;;;;;;;;5061367;28;20470;-52
2024/01/13 11:15:00;;;;;;;6.93;5.90;;;;;;;;;;5059655;28;20449;-53
2024/01/13 11:17:26;;;;;;;6.80;6.10;;;;;;;;;;5060908;28;20548;-52
2024/01/13 11:19:52;;;;;;;5.97;5.37;;;;;;;;;;5057927;28;20446;-53
2024/01/13 11:22:33;;;;;;;6.67;5.97;;;;;;;;;;5062473;28;20450;-52
2024/01/13 11:24:59;;;;;;;7.33;6.60;;;;;;;;;;5061126;28;20261;-52
2024/01/13 11:27:25;;;;;;;7.00;6.30;;;;;;;;;;5059032;28;20434;-51
2024/01/13 11:29:53;;;;;;;8.90;6.73;;;;;;;;;;5060472;28;20433;-52
2024/01/13 11:32:19;;;;;;;6.67;5.90;;;;;;;;;;5059012;28;20446;-52
2024/01/13 11:34:45;;;;;;;6.77;6.07;;;;;;;;;;5060950;28;20448;-53
2024/01/13 11:37:12;;;;;;;7.87;6.87;;;;;;;;;;5060660;28;20450;-52
2024/01/13 11:39:38;;;;;;;6.40;5.70;;;;;;;;;;5060583;28;20426;-51
2024/01/13 11:42:04;;;;;;;7.03;6.23;;;;;;;;;;5058610;28;20442;-52
2024/01/13 11:44:35;;;;;;;7.10;6.37;;;;;;;;;;5058980;28;20536;-52
2024/01/13 11:47:05;;;;;;;6.80;6.03;;;;;;;;;;5058712;28;20447;-52
2024/01/13 11:49:31;;;;;;;7.53;6.50;;;;;;;;;;5060560;28;20454;-51
2024/01/13 11:51:58;;;;;;;7.23;6.33;;;;;;;;;;5060645;28;20426;-52
2024/01/13 11:54:25;;;;;;;7.33;6.53;;;;;;;;;;5058613;28;20426;-52
2024/01/13 11:56:51;;;;;;;7.87;6.70;;;;;;;;;;5058862;28;20441;-52
2024/01/13 11:59:17;;;;;;;10.20;6.87;;;;;;;;;;5058254;28;20860;-52
2024/01/13 12:01:44;;;;;;;8.20;6.87;;;;;;;;;;5060567;28;20982;-51
2024/01/13 12:04:11;;;;;;;7.40;6.67;;;;;;;;;;5058521;28;20226;-51
2024/01/13 12:06:37;;;;;;;9.47;8.13;;;;;;;;;;5060073;28;20462;-52
2024/01/13 12:09:03;;;;;;;9.30;7.40;;;;;;;;;;5058683;28;20434;-51
2024/01/13 12:11:29;;;;;;;8.67;7.47;;;;;;;;;;5060499;28;21060;-52
2024/01/13 12:13:55;;;;;;;9.73;8.17;;;;;;;;;;5057097;28;20418;-52
2024/01/13 12:16:21;;;;;;;9.40;8.10;;;;;;;;;;5060302;28;20616;-51
2024/01/13 12:18:47;;;;;;;9.97;8.13;;;;;;;;;;5060315;28;20910;-52
2024/01/13 12:21:15;;;;;;;9.47;8.03;;;;;;;;;;5060003;28;20279;-51
2024/01/13 12:23:42;;;;;;;9.73;8.53;;;;;;;;;;5060135;28;20986;-51
2024/01/13 12:26:08;;;;;;;10.77;8.50;;;;;;;;;;5060241;28;21519;-52
2024/01/13 12:28:34;;;;;;;11.80;10.10;;;;;;;;;;5060106;28;20481;-51
2024/01/13 12:31:02;;;;;;;13.93;10.87;;;;;;;;;;5058538;28;20203;-51
2024/01/13 12:33:28;;;;;;;16.87;11.37;;;;;;;;;;5060048;28;20442;-50
2024/01/13 12:35:58;;;;;;;14.03;11.07;;;;;;;;;;5060184;28;20440;-51
2024/01/13 12:38:26;;;;;;;14.00;10.90;;;;;;;;;;5059974;28;20200;-51
2024/01/13 12:40:52;;;;;;;15.63;11.87;;;;;;;;;;5061777;28;20445;-51
2024/01/13 12:43:19;;;;;;;17.40;13.60;;;;;;;;;;5057944;28;20497;-51
2024/01/13 12:45:45;;;;;;;16.90;12.50;;;;;;;;;;5060162;28;20483;-51
2024/01/13 12:48:11;;;;;;;18.10;13.27;;;;;;;;;;5059883;28;20995;-51
2024/01/13 12:50:37;;;;;;;18.90;14.50;;;;;;;;;;5060973;28;20199;-51
2024/01/13 12:53:03;;;;;;;17.70;14.13;;;;;;;;;;5059861;28;20632;-52
2024/01/13 12:55:30;;;;;;;19.27;14.00;;;;;;;;;;5057498;28;20208;-51
2024/01/13 12:57:56;;;;;;;21.20;14.80;;;;;;;;;;5059893;28;20434;-51
2024/01/13 13:00:25;;;;;;;21.53;14.90;;;;;;;;;;5057860;28;20438;-51
2024/01/13 13:02:51;;;;;;;20.70;16.43;;;;;;;;;;5059711;28;20478;-51
2024/01/13 13:05:17;;;;;;;20.50;14.80;;;;;;;;;;5059632;28;20936;-50
2024/01/13 13:07:43;;;;;;;21.33;16.17;;;;;;;;;;5059923;28;20528;-50
2024/01/13 13:10:10;;;;;;;28.43;17.93;;;;;;;;;;5059681;28;20509;-50
2024/01/13 13:12:37;;;;;;;23.53;17.73;;;;;;;;;;5057925;28;20981;-50
2024/01/13 13:15:04;;;;;;;22.10;16.80;;;;;;;;;;5059652;28;20430;-51
2024/01/13 13:17:30;;;;;;;22.33;17.60;;;;;;;;;;5061413;28;20536;-52
2024/01/13 13:19:57;;;;;;;22.70;17.80;;;;;;;;;;5063276;28;20437;-50
2024/01/13 13:22:23;;;;;;;22.17;16.80;;;;;;;;;;5063165;28;20469;-51
2024/01/13 13:24:49;;;;;;;24.80;17.50;;;;;;;;;;5061697;28;20472;-50
2024/01/13 13:27:15;;;;;;;30.00;18.70;;;;;;;;;;5062254;28;20576;-50
2024/01/13 13:29:42;;;;;;;23.67;17.63;;;;;;;;;;5063260;28;20874;-50
2024/01/13 13:32:08;;;;;;;24.90;18.20;;;;;;;;;;5063241;28;20470;-51
2024/01/13 13:34:35;;;;;;;21.63;16.90;;;;;;;;;;5063309;28;20472;-51
2024/01/13 13:37:01;;;;;;;25.20;18.43;;;;;;;;;;5073720;28;20593;-51
2024/01/13 13:39:31;;;;;;;28.90;18.63;;;;;;;;;;5075265;28;20540;-51
2024/01/13 13:41:57;;;;;;;26.00;19.13;;;;;;;;;;5075433;28;20585;-51
2024/01/13 13:44:24;;;;;;;26.93;18.50;;;;;;;;;;5075060;28;20473;-51
2024/01/13 13:46:51;;;;;;;30.17;20.13;;;;;;;;;;5073104;28;20468;-51
2024/01/13 13:49:17;;;;;;;25.53;18.60;;;;;;;;;;5074707;28;20471;-51
2024/01/13 13:51:43;;;;;;;27.77;20.00;;;;;;;;;;5074791;28;20441;-51
2024/01/13 13:54:09;;;;;;;26.63;19.20;;;;;;;;;;5074557;28;20242;-51
2024/01/13 13:56:35;;;;;;;29.20;20.17;;;;;;;;;;5074394;28;20433;-50
2024/01/13 13:59:01;;;;;;;29.50;19.80;;;;;;;;;;5074455;28;20286;-51
2024/01/13 14:01:27;;;;;;;25.83;19.13;;;;;;;;;;5074543;28;20260;-50
2024/01/13 14:03:55;;;;;;;26.13;19.57;;;;;;;;;;5074336;28;20276;-51
2024/01/13 14:06:21;;;;;;;30.47;19.80;;;;;;;;;;5074155;28;20532;-50
2024/01/13 14:08:47;;;;;;;27.20;19.47;;;;;;;;;;5074309;28;20908;-52
2024/01/13 14:11:13;;;;;;;25.43;18.17;;;;;;;;;;5073824;28;20479;-51
2024/01/13 14:13:39;;;;;;;25.37;18.77;;;;;;;;;;5072823;28;20203;-51
2024/01/13 14:16:05;;;;;;;26.23;19.53;;;;;;;;;;5072949;28;20234;-51
2024/01/13 14:18:33;;;;;;;24.90;18.07;;;;;;;;;;5072972;28;20223;-51
2024/01/13 14:21:00;;;;;;;25.57;18.17;;;;;;;;;;5073113;28;20458;-51
2024/01/13 14:23:26;;;;;;;28.13;17.37;;;;;;;;;;5072597;28;20477;-51
2024/01/13 14:25:52;;;;;;;23.20;17.97;;;;;;;;;;5072810;28;20476;-51
2024/01/13 14:28:18;;;;;;;24.33;17.90;;;;;;;;;;5072770;28;20438;-51
2024/01/13 14:30:44;;;;;;;21.97;16.53;;;;;;;;;;5072522;28;20196;-51
2024/01/13 14:33:10;;;;;;;24.57;17.23;;;;;;;;;;5072733;28;20934;-51